Time;durP1;ratioP1;P1;durP2;ratioP2;P2;SDS_P1;SDS_P2;PMS_P1;PMS_P2;Temp;Humidity;BMP_temperature;BMP_pressure;BME280_temperature;BME280_humidity;BME280_pressure;Samples;Min_cycle;Max_cycle;Signal;HPM_P1;HPM_P2
2021/12/21 00:00:14;;;;;;;3.83;3.00;;;2.70;99.90;;;;;;5028784;28;20216;-71
2021/12/21 00:02:40;;;;;;;2.93;2.73;;;2.70;99.90;;;;;;5028041;28;20241;-72
2021/12/21 00:05:08;;;;;;;4.10;3.00;;;2.60;99.90;;;;;;5027752;28;20897;-71
2021/12/21 00:07:36;;;;;;;3.10;2.47;;;2.60;99.90;;;;;;5028400;28;20217;-72
2021/12/21 00:10:04;;;;;;;3.87;2.87;;;2.60;99.90;;;;;;5028162;28;20255;-71
2021/12/21 00:12:33;;;;;;;5.63;2.70;;;2.60;99.90;;;;;;5028177;28;20271;-71
2021/12/21 00:15:04;;;;;;;2.80;2.60;;;2.60;99.90;;;;;;5028715;28;20213;-71
2021/12/21 00:17:49;;;;;;;4.90;2.60;;;2.70;99.90;;;;;;5028716;28;20231;-72
2021/12/21 00:20:29;;;;;;;3.10;2.30;;;2.70;99.90;;;;;;5028265;28;20236;-71
2021/12/21 00:23:28;;;;;;;2.33;2.00;;;2.80;99.90;;;;;;5028001;28;20280;-71
2021/12/21 00:25:56;;;;;;;6.10;3.50;;;2.80;99.90;;;;;;5027875;28;20215;-71
2021/12/21 00:28:23;;;;;;;4.57;2.80;;;2.80;99.90;;;;;;5027829;28;20212;-71
2021/12/21 00:30:50;;;;;;;4.00;2.53;;;2.70;99.90;;;;;;5027020;28;20232;-72
2021/12/21 00:33:17;;;;;;;3.07;2.77;;;2.70;99.90;;;;;;5028777;28;20212;-71
2021/12/21 00:35:44;;;;;;;5.47;2.87;;;2.70;99.90;;;;;;5029255;28;20259;-71
2021/12/21 00:38:12;;;;;;;4.17;2.63;;;2.60;99.90;;;;;;5030175;28;20201;-71
2021/12/21 00:40:38;;;;;;;3.50;3.00;;;2.60;99.90;;;;;;5030139;28;20232;-71
2021/12/21 00:43:06;;;;;;;3.73;2.67;;;2.50;99.90;;;;;;5029436;28;20664;-71
2021/12/21 00:45:33;;;;;;;4.07;3.07;;;2.50;99.90;;;;;;5029946;28;20209;-71
2021/12/21 00:48:00;;;;;;;2.73;2.53;;;2.50;99.90;;;;;;5030238;28;20212;-71
2021/12/21 00:50:26;;;;;;;4.40;3.17;;;2.60;99.90;;;;;;5020204;28;20225;-70
2021/12/21 00:52:54;;;;;;;4.17;2.80;;;2.60;99.90;;;;;;5012379;28;20237;-71
2021/12/21 00:55:23;;;;;;;6.93;3.03;;;2.40;99.90;;;;;;5027801;28;20276;-72
2021/12/21 00:57:50;;;;;;;3.43;2.70;;;2.40;99.90;;;;;;5029778;28;20250;-72
2021/12/21 01:00:18;;;;;;;4.73;2.90;;;2.30;99.90;;;;;;5022477;28;20340;-72
2021/12/21 01:02:46;;;;;;;3.70;2.87;;;2.30;99.90;;;;;;5009971;28;20230;-72
2021/12/21 01:05:20;;;;;;;3.87;2.80;;;2.40;99.90;;;;;;5009902;28;20205;-72
2021/12/21 01:07:50;;;;;;;4.60;3.27;;;2.30;99.90;;;;;;5009782;28;20190;-71
2021/12/21 01:10:47;;;;;;;5.20;3.10;;;2.30;99.90;;;;;;5012704;28;20229;-72
2021/12/21 01:13:28;;;;;;;4.20;3.03;;;2.30;99.90;;;;;;5028365;28;20733;-71
2021/12/21 01:16:17;;;;;;;3.50;3.20;;;2.40;99.90;;;;;;5029458;28;20291;-71
2021/12/21 01:18:59;;;;;;;6.07;3.30;;;2.40;99.90;;;;;;5028591;28;20267;-71
2021/12/21 01:21:30;;;;;;;3.63;3.33;;;2.40;99.90;;;;;;5029620;28;20232;-72
2021/12/21 01:24:22;;;;;;;3.60;3.30;;;2.30;99.90;;;;;;5029444;28;20494;-71
2021/12/21 01:27:03;;;;;;;5.00;3.63;;;2.40;99.90;;;;;;5029254;28;20595;-71
2021/12/21 01:29:38;;;;;;;3.57;2.87;;;2.40;99.90;;;;;;5029333;28;20193;-71
2021/12/21 01:32:12;;;;;;;4.57;3.53;;;2.40;99.90;;;;;;5029066;28;20699;-71
2021/12/21 01:34:49;;;;;;;3.70;3.40;;;2.20;99.90;;;;;;5029232;28;20249;-72
2021/12/21 01:37:22;;;;;;;4.10;3.60;;;2.30;99.90;;;;;;5029090;28;20622;-72
2021/12/21 01:40:00;;;;;;;4.90;3.93;;;2.30;99.90;;;;;;5029141;28;20232;-72
2021/12/21 01:42:40;;;;;;;5.60;3.67;;;2.10;99.90;;;;;;5029239;28;20197;-71
2021/12/21 01:50:37;;;;;;;6.67;4.10;;;2.00;99.90;;;;;;5028473;28;20771;-71
2021/12/21 01:53:04;;;;;;;7.43;4.43;;;2.10;99.90;;;;;;5028944;28;20208;-71
2021/12/21 01:55:31;;;;;;;6.17;3.93;;;2.10;99.90;;;;;;5028637;28;20233;-72
2021/12/21 01:57:57;;;;;;;6.23;3.93;;;2.20;99.90;;;;;;5028987;28;20298;-72
2021/12/21 02:00:27;;;;;;;7.53;4.30;;;2.10;99.90;;;;;;5029096;28;20714;-71
2021/12/21 02:02:53;;;;;;;8.20;4.40;;;2.10;99.90;;;;;;5028537;28;20216;-71
2021/12/21 02:05:20;;;;;;;4.40;3.73;;;2.10;99.90;;;;;;5028243;28;20659;-71
2021/12/21 02:07:47;;;;;;;4.87;3.97;;;2.10;99.90;;;;;;5028356;28;20213;-71
2021/12/21 02:10:13;;;;;;;6.17;3.97;;;2.20;99.90;;;;;;5028640;28;20208;-71
2021/12/21 02:12:40;;;;;;;4.57;4.00;;;2.30;99.90;;;;;;5028478;28;20247;-71
2021/12/21 02:15:07;;;;;;;5.47;3.90;;;2.20;99.90;;;;;;5028325;28;20209;-70
2021/12/21 02:20:23;;;;;;;6.93;4.47;;;2.30;99.90;;;;;;5027850;28;20576;-70
2021/12/21 02:22:56;;;;;;;5.93;3.90;;;2.40;99.90;;;;;;5028100;28;20193;-70
2021/12/21 02:25:55;;;;;;;6.10;4.07;;;2.30;99.90;;;;;;5028408;28;20242;-69
2021/12/21 02:28:35;;;;;;;5.47;4.20;;;2.40;99.90;;;;;;5028289;28;20243;-72
2021/12/21 02:31:05;;;;;;;4.40;4.00;;;2.40;99.90;;;;;;5028546;28;20320;-72
2021/12/21 02:33:32;;;;;;;6.43;4.30;;;2.40;99.90;;;;;;5028151;28;20276;-72
2021/12/21 02:36:00;;;;;;;6.37;4.07;;;2.50;99.90;;;;;;5028366;28;20257;-73
2021/12/21 02:38:28;;;;;;;4.40;4.00;;;2.40;99.90;;;;;;5028080;28;20232;-72
2021/12/21 02:40:55;;;;;;;7.47;4.40;;;2.40;99.90;;;;;;5028205;28;20216;-72
2021/12/21 02:43:22;;;;;;;5.67;4.50;;;2.40;99.90;;;;;;5028216;28;20205;-71
2021/12/21 02:45:49;;;;;;;5.90;5.27;;;2.50;99.90;;;;;;5028215;28;20614;-71
2021/12/21 02:48:15;;;;;;;9.17;5.40;;;2.50;99.90;;;;;;5028316;28;20212;-71
2021/12/21 02:50:42;;;;;;;5.13;4.57;;;2.50;99.90;;;;;;5027938;28;20247;-71
2021/12/21 02:53:11;;;;;;;6.03;4.73;;;2.40;99.90;;;;;;5028122;28;20478;-71
2021/12/21 02:55:38;;;;;;;5.13;4.63;;;2.30;99.90;;;;;;5027565;28;20278;-71
2021/12/21 02:58:06;;;;;;;8.80;5.20;;;2.20;99.90;;;;;;5027943;28;20231;-71
2021/12/21 03:00:34;;;;;;;8.60;5.30;;;2.10;99.90;;;;;;5027929;28;20220;-71
2021/12/21 03:03:06;;;;;;;5.80;4.77;;;2.10;99.90;;;;;;5028194;28;20204;-71
2021/12/21 03:05:35;;;;;;;7.07;5.17;;;2.20;99.90;;;;;;5027996;28;20201;-71
2021/12/21 03:08:09;;;;;;;5.30;4.80;;;2.20;99.90;;;;;;5028010;28;20212;-72
2021/12/21 03:10:39;;;;;;;8.87;5.47;;;2.20;99.90;;;;;;5027825;28;20524;-72
2021/12/21 03:15:50;;;;;;;9.50;4.70;;;2.10;99.90;;;;;;5027633;28;20250;-72
2021/12/21 03:18:17;;;;;;;7.13;5.07;;;2.20;99.90;;;;;;5027815;28;20640;-72
2021/12/21 03:20:43;;;;;;;7.17;5.07;;;2.20;99.90;;;;;;5027582;28;20229;-72
2021/12/21 03:23:10;;;;;;;6.87;5.07;;;2.10;99.90;;;;;;5027902;28;20571;-71
2021/12/21 03:25:38;;;;;;;7.77;5.03;;;2.10;99.90;;;;;;5027804;28;20262;-72
2021/12/21 03:28:05;;;;;;;9.43;5.87;;;2.10;99.90;;;;;;5027957;28;20235;-73
2021/12/21 03:30:32;;;;;;;6.83;5.30;;;2.20;99.90;;;;;;5027583;28;20688;-71
2021/12/21 03:32:58;;;;;;;7.77;4.93;;;2.20;99.90;;;;;;5027647;28;20240;-71
2021/12/21 03:35:25;;;;;;;7.30;4.70;;;2.20;99.90;;;;;;5027435;28;20219;-71
2021/12/21 03:37:52;;;;;;;6.60;5.33;;;2.20;99.90;;;;;;5030203;28;20442;-71
2021/12/21 03:40:18;;;;;;;7.33;5.80;;;2.30;99.90;;;;;;5031133;28;20657;-70
2021/12/21 03:42:46;;;;;;;12.17;5.37;;;2.40;99.90;;;;;;5031307;28;20223;-71
2021/12/21 03:45:13;;;;;;;6.97;5.40;;;2.30;99.90;;;;;;5031370;28;20209;-71
2021/12/21 03:47:40;;;;;;;6.47;5.27;;;2.30;99.90;;;;;;5031202;28;20228;-71
2021/12/21 03:50:13;;;;;;;7.07;5.03;;;2.30;99.90;;;;;;5031411;28;20629;-72
2021/12/21 03:52:40;;;;;;;9.50;5.50;;;2.30;99.90;;;;;;5030992;28;20228;-72
2021/12/21 03:55:07;;;;;;;5.83;5.23;;;2.30;99.90;;;;;;5030732;28;20240;-72
2021/12/21 03:57:34;;;;;;;6.23;5.63;;;2.30;99.90;;;;;;5030900;28;20205;-72
2021/12/21 04:00:02;;;;;;;6.33;5.50;;;2.30;99.90;;;;;;5031271;28;20211;-72
2021/12/21 04:02:29;;;;;;;7.67;5.53;;;2.30;99.90;;;;;;5030708;28;20729;-72
2021/12/21 04:04:58;;;;;;;6.67;5.17;;;2.30;99.90;;;;;;5031040;28;20208;-72
2021/12/21 04:07:25;;;;;;;8.10;5.23;;;2.30;99.90;;;;;;5031056;28;20232;-73
2021/12/21 04:09:52;;;;;;;7.13;5.93;;;2.30;99.90;;;;;;5030688;28;20671;-73
2021/12/21 04:12:19;;;;;;;8.40;5.97;;;2.10;99.90;;;;;;5031055;28;20243;-72
2021/12/21 04:14:46;;;;;;;9.40;5.43;;;2.10;99.90;;;;;;5030933;28;20255;-73
2021/12/21 04:17:20;;;;;;;9.03;6.20;;;2.10;99.90;;;;;;5030929;28;20260;-72
2021/12/21 04:19:47;;;;;;;9.83;6.43;;;2.20;99.90;;;;;;5030322;28;20228;-72
2021/12/21 04:22:15;;;;;;;7.23;5.73;;;2.10;99.90;;;;;;5030805;28;20205;-71
2021/12/21 04:24:41;;;;;;;8.03;5.87;;;2.20;99.90;;;;;;5030457;28;20208;-71
2021/12/21 04:27:08;;;;;;;10.30;6.60;;;2.30;99.90;;;;;;5030545;28;20263;-70
2021/12/21 04:29:35;;;;;;;10.70;6.00;;;2.20;99.90;;;;;;5030529;28;20209;-71
2021/12/21 04:32:02;;;;;;;9.20;5.93;;;2.20;99.90;;;;;;5030564;28;20221;-71
2021/12/21 04:34:31;;;;;;;10.23;6.30;;;2.20;99.90;;;;;;5030281;28;20251;-72
2021/12/21 04:36:57;;;;;;;10.97;6.50;;;2.30;99.90;;;;;;5030217;28;20291;-72
2021/12/21 04:39:32;;;;;;;8.43;5.80;;;2.30;99.90;;;;;;5030311;28;20221;-72
2021/12/21 04:41:59;;;;;;;7.77;5.87;;;2.30;99.90;;;;;;5030415;28;20204;-73
2021/12/21 04:44:25;;;;;;;6.77;6.10;;;2.30;99.90;;;;;;5030277;28;20335;-72
2021/12/21 04:46:52;;;;;;;7.13;6.03;;;2.30;99.90;;;;;;5030064;28;20220;-71
2021/12/21 04:49:19;;;;;;;8.00;6.37;;;2.30;99.90;;;;;;5030256;28;20209;-72
2021/12/21 04:51:47;;;;;;;8.40;6.23;;;2.30;99.90;;;;;;5030160;28;20229;-71
2021/12/21 04:54:14;;;;;;;9.83;6.60;;;2.20;99.90;;;;;;5029737;28;20256;-71
2021/12/21 04:56:40;;;;;;;11.37;6.53;;;2.20;99.90;;;;;;5029682;28;20197;-71
2021/12/21 04:59:07;;;;;;;12.37;5.90;;;2.10;99.90;;;;;;5030113;28;20213;-71
2021/12/21 05:01:34;;;;;;;6.80;6.10;;;2.10;99.90;;;;;;5030031;28;20205;-71
2021/12/21 05:04:01;;;;;;;9.90;6.53;;;2.20;99.90;;;;;;5030031;28;20265;-71
2021/12/21 05:06:27;;;;;;;7.07;6.00;;;2.10;99.90;;;;;;5029802;28;20212;-71
2021/12/21 05:09:07;;;;;;;11.93;7.07;;;2.10;99.90;;;;;;5029621;28;20263;-71
2021/12/21 05:11:35;;;;;;;8.67;6.20;;;2.10;99.90;;;;;;5029743;28;20224;-71
2021/12/21 05:14:06;;;;;;;7.87;6.17;;;2.20;99.90;;;;;;5029700;28;20216;-71
2021/12/21 05:16:32;;;;;;;11.07;6.20;;;2.20;99.90;;;;;;5029594;28;20224;-71
2021/12/21 05:18:59;;;;;;;8.53;6.50;;;2.20;99.90;;;;;;5029474;28;20224;-71
2021/12/21 05:21:26;;;;;;;7.23;5.83;;;2.20;99.90;;;;;;5029510;28;20262;-71
2021/12/21 05:23:52;;;;;;;9.57;6.17;;;2.20;99.90;;;;;;5029255;28;20205;-71
2021/12/21 05:26:20;;;;;;;7.10;6.40;;;2.20;99.90;;;;;;5029468;28;20262;-71
2021/12/21 05:28:47;;;;;;;10.70;6.57;;;2.20;99.90;;;;;;5029391;28;20279;-71
2021/12/21 05:31:14;;;;;;;8.03;6.67;;;2.20;99.90;;;;;;5029167;28;20555;-72
2021/12/21 05:33:40;;;;;;;8.87;7.07;;;2.20;99.90;;;;;;5029310;28;20302;-71
2021/12/21 05:36:07;;;;;;;9.00;6.53;;;2.20;99.90;;;;;;5029260;28;20216;-71
2021/12/21 05:38:35;;;;;;;10.67;7.63;;;2.10;99.90;;;;;;5029019;28;20229;-72
2021/12/21 05:41:11;;;;;;;11.10;7.30;;;2.10;99.90;;;;;;5029073;28;20232;-72
2021/12/21 05:43:39;;;;;;;9.73;7.53;;;2.10;99.90;;;;;;5029072;28;20618;-72
2021/12/21 05:46:06;;;;;;;11.27;7.40;;;2.20;99.90;;;;;;5029169;28;20204;-72
2021/12/21 05:48:32;;;;;;;13.47;8.33;;;2.10;99.90;;;;;;5028975;28;20254;-71
2021/12/21 05:50:59;;;;;;;15.63;8.03;;;2.10;99.90;;;;;;5028777;28;21022;-71
2021/12/21 05:53:26;;;;;;;10.63;7.50;;;2.10;99.90;;;;;;5028704;28;20232;-72
2021/12/21 05:55:52;;;;;;;11.97;7.93;;;2.10;99.90;;;;;;5028778;28;20240;-70
2021/12/21 05:58:19;;;;;;;11.97;7.80;;;2.20;99.90;;;;;;5028870;28;20204;-70
2021/12/21 06:00:47;;;;;;;11.13;7.90;;;2.30;99.90;;;;;;5027859;28;20757;-70
2021/12/21 06:03:14;;;;;;;10.63;8.30;;;2.30;99.90;;;;;;5028745;28;20259;-70
2021/12/21 06:05:41;;;;;;;12.20;8.63;;;2.30;99.90;;;;;;5028661;28;20205;-70
2021/12/21 06:08:07;;;;;;;10.80;7.57;;;2.30;99.90;;;;;;5028604;28;20258;-70
2021/12/21 06:10:37;;;;;;;10.43;7.60;;;2.30;99.90;;;;;;5028596;28;20205;-70
2021/12/21 06:13:38;;;;;;;11.90;7.90;;;2.30;99.90;;;;;;5028949;28;20235;-73
2021/12/21 06:16:25;;;;;;;8.30;7.37;;;2.40;99.90;;;;;;5028868;28;20225;-72
2021/12/21 06:27:12;;;;;;;11.60;7.13;;;2.20;99.90;;;;;;5012440;28;20207;-72
2021/12/21 06:29:40;;;;;;;8.70;7.17;;;2.20;99.90;;;;;;5028341;28;20666;-72
2021/12/21 06:32:10;;;;;;;12.00;7.47;;;2.20;99.90;;;;;;5028314;28;20248;-72
2021/12/21 06:34:37;;;;;;;9.77;7.30;;;2.20;99.90;;;;;;5028342;28;20206;-72
2021/12/21 06:37:05;;;;;;;11.23;7.30;;;2.20;99.90;;;;;;5028245;28;20229;-72
2021/12/21 06:39:33;;;;;;;10.53;8.80;;;2.20;99.90;;;;;;5028182;28;20220;-72
2021/12/21 06:42:01;;;;;;;7.50;6.73;;;2.20;99.90;;;;;;5028435;28;20215;-72
2021/12/21 06:44:28;;;;;;;9.43;7.77;;;2.20;99.90;;;;;;5028179;28;20208;-72
2021/12/21 06:47:09;;;;;;;12.03;8.07;;;2.20;99.90;;;;;;5028070;28;20220;-72
2021/12/21 06:52:22;;;;;;;11.33;7.30;;;2.00;99.90;;;;;;5027730;28;20223;-71
2021/12/21 06:54:49;;;;;;;9.97;7.83;;;2.00;99.90;;;;;;5027413;28;20265;-71
2021/12/21 06:57:15;;;;;;;13.07;8.17;;;2.00;99.90;;;;;;5028258;28;20205;-71
2021/12/21 06:59:43;;;;;;;9.70;7.60;;;2.00;99.90;;;;;;5027922;28;20255;-71
2021/12/21 07:02:10;;;;;;;12.10;7.93;;;2.00;99.90;;;;;;5028068;28;20204;-71
2021/12/21 07:04:39;;;;;;;8.73;7.47;;;2.10;99.90;;;;;;5027607;28;20270;-72
2021/12/21 07:07:06;;;;;;;13.20;8.40;;;2.20;99.90;;;;;;5028147;28;20235;-71
2021/12/21 07:09:38;;;;;;;9.07;7.23;;;2.10;99.90;;;;;;5027833;28;20204;-71
2021/12/21 07:12:23;;;;;;;10.90;7.53;;;2.10;99.90;;;;;;5029654;28;20288;-72
2021/12/21 07:20:17;;;;;;;12.17;8.20;;;2.20;99.90;;;;;;5028869;28;20204;-71
2021/12/21 07:22:44;;;;;;;12.40;8.53;;;2.20;99.90;;;;;;5031584;28;20209;-71
2021/12/21 07:25:11;;;;;;;13.13;7.97;;;2.20;99.90;;;;;;5031704;28;20209;-71
2021/12/21 07:27:38;;;;;;;12.47;8.40;;;2.20;99.90;;;;;;5031711;28;20209;-72
2021/12/21 07:30:06;;;;;;;15.47;7.97;;;2.20;99.90;;;;;;5031884;28;20208;-72
2021/12/21 07:32:34;;;;;;;10.90;7.83;;;2.10;99.90;;;;;;5030595;28;20278;-72
2021/12/21 07:35:00;;;;;;;12.43;8.53;;;2.10;99.90;;;;;;5031743;28;20262;-72
2021/12/21 07:37:28;;;;;;;13.40;8.60;;;2.10;99.90;;;;;;5031656;28;20588;-73
2021/12/21 07:39:55;;;;;;;15.10;8.97;;;2.10;99.90;;;;;;5031219;28;20263;-73
2021/12/21 07:42:23;;;;;;;10.43;7.73;;;2.10;99.90;;;;;;5031676;28;20209;-72
2021/12/21 07:44:50;;;;;;;11.33;7.97;;;2.20;99.90;;;;;;5031274;28;20209;-72
2021/12/21 07:47:18;;;;;;;12.60;8.20;;;2.30;99.90;;;;;;5031103;28;20663;-72
2021/12/21 07:49:45;;;;;;;10.37;8.60;;;2.40;99.90;;;;;;5031162;28;20209;-71
2021/12/21 07:52:14;;;;;;;11.07;8.17;;;2.50;99.90;;;;;;5031029;28;20659;-72
2021/12/21 07:54:42;;;;;;;10.77;8.03;;;2.60;99.90;;;;;;5030557;28;20655;-72
2021/12/21 07:57:09;;;;;;;12.07;7.90;;;2.60;99.90;;;;;;5031359;28;20627;-73
2021/12/21 07:59:37;;;;;;;12.23;8.00;;;2.60;99.90;;;;;;5031119;28;20264;-73
2021/12/21 08:02:05;;;;;;;17.43;8.63;;;2.70;99.90;;;;;;5031080;28;20204;-73
2021/12/21 08:04:33;;;;;;;10.20;8.13;;;2.70;99.90;;;;;;5030626;28;20671;-72
2021/12/21 08:07:08;;;;;;;12.93;8.13;;;2.80;99.90;;;;;;5031030;28;20216;-73
2021/12/21 08:09:39;;;;;;;11.10;8.70;;;2.80;99.90;;;;;;5030782;28;20220;-71
2021/12/21 08:12:14;;;;;;;12.97;8.20;;;2.70;99.90;;;;;;5030831;28;20228;-71
2021/12/21 08:14:40;;;;;;;11.30;8.10;;;2.70;99.90;;;;;;5030691;28;20207;-73
2021/12/21 08:17:07;;;;;;;11.77;9.20;;;2.70;99.90;;;;;;5030762;28;20290;-73
2021/12/21 08:19:34;;;;;;;12.57;8.23;;;2.60;99.90;;;;;;5030516;28;20760;-73
2021/12/21 08:22:00;;;;;;;10.40;7.70;;;2.60;99.90;;;;;;5030609;28;20260;-72
2021/12/21 08:24:29;;;;;;;11.53;7.30;;;2.50;99.90;;;;;;5030689;28;20270;-72
2021/12/21 08:26:56;;;;;;;9.50;7.27;;;2.40;99.90;;;;;;5030691;28;20216;-72
2021/12/21 08:29:24;;;;;;;12.83;8.13;;;2.40;99.90;;;;;;5030668;28;20212;-72
2021/12/21 08:31:50;;;;;;;11.60;7.67;;;2.40;99.90;;;;;;5030544;28;20212;-71
2021/12/21 08:34:17;;;;;;;12.37;7.63;;;2.30;99.90;;;;;;5030056;28;20719;-72
2021/12/21 08:36:44;;;;;;;8.77;7.30;;;2.40;99.90;;;;;;5030105;28;20233;-72
2021/12/21 08:39:11;;;;;;;10.83;7.07;;;2.40;99.90;;;;;;5030359;28;20205;-71
2021/12/21 08:41:41;;;;;;;9.50;7.03;;;2.30;99.90;;;;;;5030300;28;20465;-72
2021/12/21 08:44:10;;;;;;;9.03;6.80;;;2.40;99.90;;;;;;5030207;28;20742;-72
2021/12/21 08:46:38;;;;;;;11.77;7.30;;;2.30;99.90;;;;;;5030286;28;20219;-72
2021/12/21 08:49:04;;;;;;;8.03;6.67;;;2.30;99.90;;;;;;5030502;28;20209;-72
2021/12/21 08:51:31;;;;;;;11.03;7.37;;;2.40;99.90;;;;;;5030456;28;20209;-74
2021/12/21 08:53:58;;;;;;;9.47;7.20;;;2.40;99.90;;;;;;5029772;28;20263;-73
2021/12/21 08:56:24;;;;;;;9.27;7.67;;;2.40;99.90;;;;;;5029488;28;20240;-73
2021/12/21 08:58:51;;;;;;;9.63;7.43;;;2.40;99.90;;;;;;5030066;28;20619;-72
2021/12/21 09:01:18;;;;;;;9.70;7.23;;;2.50;99.90;;;;;;5030038;28;20255;-72
2021/12/21 09:03:47;;;;;;;8.73;7.20;;;2.50;99.90;;;;;;5029862;28;20209;-73
2021/12/21 09:06:14;;;;;;;8.07;6.90;;;2.40;99.90;;;;;;5029996;28;20209;-72
2021/12/21 09:08:40;;;;;;;9.60;7.00;;;2.50;99.90;;;;;;5029812;28;20209;-72
2021/12/21 09:11:07;;;;;;;8.03;7.13;;;2.50;99.90;;;;;;5029901;28;20204;-72
2021/12/21 09:13:34;;;;;;;7.77;6.70;;;2.50;99.90;;;;;;5029639;28;20236;-72
2021/12/21 09:16:04;;;;;;;10.33;6.83;;;2.50;99.90;;;;;;5029905;28;20229;-72
2021/12/21 09:18:31;;;;;;;9.80;7.03;;;2.40;99.90;;;;;;5029766;28;20225;-72
2021/12/21 09:20:59;;;;;;;12.90;7.50;;;2.40;99.90;;;;;;5029549;28;20291;-73
2021/12/21 09:23:28;;;;;;;10.77;7.47;;;2.40;99.90;;;;;;5029730;28;20213;-73
2021/12/21 09:25:55;;;;;;;10.10;6.80;;;2.30;99.90;;;;;;5029400;28;20300;-73
2021/12/21 09:28:21;;;;;;;10.17;6.77;;;2.30;99.90;;;;;;5029544;28;20205;-71
2021/12/21 09:30:48;;;;;;;8.07;6.77;;;2.30;99.90;;;;;;5029042;28;20205;-71
2021/12/21 09:33:15;;;;;;;7.93;6.07;;;2.30;99.90;;;;;;5029220;28;20224;-71
2021/12/21 09:35:41;;;;;;;8.37;6.53;;;2.40;99.90;;;;;;5028379;28;20239;-71
2021/12/21 09:38:09;;;;;;;8.93;6.50;;;2.40;99.90;;;;;;5028812;28;20228;-71
2021/12/21 09:40:39;;;;;;;10.37;6.70;;;2.40;99.90;;;;;;5029429;28;20211;-71
2021/12/21 09:43:09;;;;;;;14.57;9.70;;;2.40;99.90;;;;;;5029111;28;20766;-71
2021/12/21 09:45:36;;;;;;;10.67;7.53;;;2.30;99.90;;;;;;5028672;28;20733;-72
2021/12/21 09:48:02;;;;;;;10.00;6.80;;;2.20;99.90;;;;;;5028938;28;20205;-71
2021/12/21 09:50:29;;;;;;;9.60;7.13;;;2.20;99.90;;;;;;5029107;28;20204;-71
2021/12/21 09:52:57;;;;;;;8.30;6.70;;;2.20;99.90;;;;;;5028833;28;20267;-71
2021/12/21 09:55:25;;;;;;;9.13;7.03;;;2.10;99.90;;;;;;5028664;28;20298;-72
2021/12/21 09:57:53;;;;;;;8.90;7.20;;;2.00;99.90;;;;;;5028907;28;20565;-72
2021/12/21 10:00:22;;;;;;;12.10;7.57;;;2.00;99.90;;;;;;5029027;28;20208;-72
2021/12/21 10:02:49;;;;;;;12.10;7.53;;;2.00;99.90;;;;;;5028391;28;20574;-72
2021/12/21 10:05:19;;;;;;;22.17;9.93;;;2.00;99.90;;;;;;5028796;28;20212;-71
2021/12/21 10:07:56;;;;;;;13.67;8.27;;;1.90;99.90;;;;;;5029018;28;20243;-71
2021/12/21 10:10:24;;;;;;;25.03;10.23;;;2.00;99.90;;;;;;5028616;28;20651;-71
2021/12/21 10:12:51;;;;;;;24.17;9.00;;;1.90;99.90;;;;;;5028627;28;20267;-70
2021/12/21 10:15:20;;;;;;;11.37;8.30;;;2.00;99.90;;;;;;5028590;28;20282;-70
2021/12/21 10:17:53;;;;;;;11.47;7.93;;;2.10;99.90;;;;;;5028516;28;20308;-70
2021/12/21 10:20:32;;;;;;;9.67;8.23;;;2.20;99.90;;;;;;5028674;28;20399;-70
2021/12/21 10:22:59;;;;;;;10.10;7.93;;;2.20;99.90;;;;;;5028435;28;20207;-70
2021/12/21 10:25:28;;;;;;;11.40;8.57;;;2.10;99.90;;;;;;5024480;28;20275;-70
2021/12/21 10:27:54;;;;;;;11.43;8.77;;;2.10;99.90;;;;;;5006770;28;20214;-70
2021/12/21 10:30:21;;;;;;;10.10;8.60;;;2.00;99.90;;;;;;5011226;28;20216;-69
2021/12/21 10:32:53;;;;;;;12.00;9.03;;;2.00;99.90;;;;;;5024537;28;20208;-69
2021/12/21 10:35:21;;;;;;;14.30;9.03;;;2.10;99.90;;;;;;5024755;28;20638;-69
2021/12/21 10:37:54;;;;;;;10.33;8.50;;;2.20;99.90;;;;;;5006235;28;20241;-70
2021/12/21 10:40:24;;;;;;;17.40;11.10;;;2.20;99.90;;;;;;5005125;28;20198;-70
2021/12/21 10:42:56;;;;;;;18.07;11.80;;;2.20;99.90;;;;;;5005069;28;20638;-70
2021/12/21 10:45:30;;;;;;;18.23;11.43;;;2.20;99.90;;;;;;5005017;28;20534;-69
2021/12/21 10:47:59;;;;;;;14.50;9.43;;;2.10;99.90;;;;;;5004771;28;20203;-69
2021/12/21 10:50:28;;;;;;;16.63;10.57;;;2.00;99.90;;;;;;5004227;28;20217;-68
2021/12/21 10:52:58;;;;;;;18.83;11.87;;;1.90;99.90;;;;;;5004033;28;20617;-68
2021/12/21 10:55:27;;;;;;;12.90;9.33;;;1.90;99.90;;;;;;5004423;28;20320;-69
2021/12/21 10:58:09;;;;;;;14.77;9.73;;;1.90;99.90;;;;;;5004316;28;20209;-69
2021/12/21 11:00:38;;;;;;;12.33;10.07;;;2.00;99.90;;;;;;5004902;28;20197;-69
2021/12/21 11:03:05;;;;;;;14.67;9.37;;;2.00;99.90;;;;;;5005014;28;20209;-69
2021/12/21 11:05:32;;;;;;;13.90;10.03;;;2.00;99.90;;;;;;5004813;28;20247;-69
2021/12/21 11:08:04;;;;;;;14.13;9.23;;;2.00;99.90;;;;;;5004351;28;20328;-69
2021/12/21 11:10:32;;;;;;;14.00;8.83;;;2.00;99.90;;;;;;5005072;28;20247;-69
2021/12/21 11:13:01;;;;;;;14.00;9.67;;;2.00;99.90;;;;;;5004356;28;20205;-69
2021/12/21 11:15:32;;;;;;;12.03;8.77;;;2.00;99.90;;;;;;5004533;28;20236;-69
2021/12/21 11:18:01;;;;;;;14.03;8.27;;;2.00;99.90;;;;;;5004339;28;20240;-69
2021/12/21 11:20:28;;;;;;;9.80;7.97;;;2.00;99.90;;;;;;5004139;28;20202;-69
2021/12/21 11:22:55;;;;;;;13.30;8.43;;;1.90;99.90;;;;;;5003999;28;20244;-68
2021/12/21 11:25:23;;;;;;;13.57;8.83;;;1.90;99.90;;;;;;5009471;28;20205;-68
2021/12/21 11:27:50;;;;;;;14.03;8.83;;;2.00;99.90;;;;;;5023679;28;20209;-69
2021/12/21 11:30:19;;;;;;;11.07;9.27;;;2.10;99.90;;;;;;5023907;28;20209;-69
2021/12/21 11:32:50;;;;;;;12.13;8.60;;;2.10;99.90;;;;;;5023777;28;20213;-70
2021/12/21 11:38:07;;;;;;;12.20;8.30;;;2.20;99.90;;;;;;5023615;28;20192;-70
2021/12/21 11:40:36;;;;;;;11.27;8.03;;;2.10;99.90;;;;;;5023980;28;20278;-70
2021/12/21 11:43:17;;;;;;;10.87;8.00;;;2.20;99.90;;;;;;5023839;28;21023;-69
2021/12/21 11:45:50;;;;;;;10.57;8.67;;;2.20;99.90;;;;;;5023838;28;20197;-69
2021/12/21 11:48:25;;;;;;;16.13;8.03;;;2.30;99.90;;;;;;5023752;28;20231;-69
2021/12/21 11:50:51;;;;;;;9.47;8.10;;;2.30;99.90;;;;;;5023101;28;20283;-69
2021/12/21 11:53:21;;;;;;;10.97;8.53;;;2.40;99.90;;;;;;5023161;28;20237;-69
2021/12/21 11:55:49;;;;;;;11.97;8.60;;;2.40;99.90;;;;;;5023536;28;20705;-69
2021/12/21 11:58:19;;;;;;;12.67;8.50;;;2.40;99.90;;;;;;5025416;28;20205;-70
2021/12/21 12:00:52;;;;;;;16.10;8.67;;;2.30;99.90;;;;;;5027045;28;20208;-70
2021/12/21 12:03:23;;;;;;;11.77;8.63;;;2.30;99.90;;;;;;5027367;28;20675;-70
2021/12/21 12:05:56;;;;;;;12.43;8.80;;;2.20;99.90;;;;;;5027149;28;20201;-70
2021/12/21 12:08:24;;;;;;;14.73;9.13;;;2.20;99.90;;;;;;5027125;28;20279;-70
2021/12/21 12:10:54;;;;;;;13.40;8.50;;;2.10;99.90;;;;;;5027002;28;20209;-70
2021/12/21 12:13:30;;;;;;;13.80;8.50;;;2.10;99.90;;;;;;5027119;28;20201;-70
2021/12/21 12:15:59;;;;;;;12.97;9.13;;;2.10;99.90;;;;;;5026849;28;20228;-70
2021/12/21 12:18:32;;;;;;;11.60;8.60;;;2.10;99.90;;;;;;5027195;28;20233;-70
2021/12/21 12:21:11;;;;;;;9.87;7.77;;;2.00;99.90;;;;;;5027444;28;20255;-68
2021/12/21 12:23:50;;;;;;;11.83;8.27;;;2.00;99.90;;;;;;5026923;28;20200;-68
2021/12/21 12:26:27;;;;;;;10.47;8.33;;;2.00;99.90;;;;;;5026640;28;20675;-70
2021/12/21 12:28:55;;;;;;;13.37;9.17;;;2.10;99.90;;;;;;5026569;28;20243;-70
2021/12/21 12:31:30;;;;;;;13.03;8.70;;;2.10;99.90;;;;;;5026988;28;20679;-70
2021/12/21 12:33:58;;;;;;;15.90;9.30;;;2.00;99.90;;;;;;5026900;28;20228;-70
2021/12/21 12:36:46;;;;;;;16.00;8.57;;;2.00;99.90;;;;;;5026636;28;20648;-70
2021/12/21 12:39:28;;;;;;;11.67;7.77;;;2.00;99.90;;;;;;5026908;28;20204;-70
2021/12/21 12:42:02;;;;;;;10.50;8.07;;;1.90;99.90;;;;;;5026849;28;20250;-70
2021/12/21 12:44:29;;;;;;;9.90;7.73;;;1.80;99.90;;;;;;5026728;28;20231;-70
2021/12/21 12:46:59;;;;;;;9.30;7.70;;;1.80;99.90;;;;;;5026511;28;20208;-70
2021/12/21 12:49:29;;;;;;;11.90;8.27;;;1.90;99.90;;;;;;5026507;28;20300;-70
2021/12/21 12:52:09;;;;;;;10.17;7.53;;;1.80;99.90;;;;;;5026426;28;20286;-70
2021/12/21 12:54:47;;;;;;;10.97;7.67;;;1.70;99.90;;;;;;5026165;28;20244;-70
2021/12/21 12:57:32;;;;;;;11.03;7.83;;;1.80;99.90;;;;;;5026252;28;20212;-70
2021/12/21 13:00:09;;;;;;;8.53;6.90;;;1.80;99.90;;;;;;5020937;28;20193;-70
2021/12/21 13:02:36;;;;;;;12.07;8.03;;;1.90;99.90;;;;;;5011269;28;20213;-70
2021/12/21 13:05:11;;;;;;;13.27;8.53;;;1.90;99.90;;;;;;5014923;28;20815;-70
2021/12/21 13:07:37;;;;;;;8.67;7.50;;;1.80;99.90;;;;;;5006902;28;20557;-73
2021/12/21 13:10:08;;;;;;;8.13;7.30;;;1.70;99.90;;;;;;5005613;28;20571;-70
2021/12/21 13:12:34;;;;;;;9.13;7.07;;;1.70;99.90;;;;;;5006162;28;20224;-71
2021/12/21 13:15:01;;;;;;;11.00;8.00;;;1.80;99.90;;;;;;5006402;28;20649;-72
2021/12/21 13:17:28;;;;;;;8.27;7.37;;;1.80;99.90;;;;;;5008404;28;21010;-68
2021/12/21 13:19:55;;;;;;;10.47;7.80;;;1.90;99.90;;;;;;5015188;28;20621;-69
2021/12/21 13:22:25;;;;;;;10.03;7.53;;;1.90;99.90;;;;;;5019816;28;20531;-68
2021/12/21 13:24:52;;;;;;;9.40;7.30;;;1.90;99.90;;;;;;5006555;28;20683;-70
2021/12/21 13:27:21;;;;;;;12.17;8.23;;;1.90;99.90;;;;;;5025552;28;20204;-70
2021/12/21 13:29:49;;;;;;;11.07;7.60;;;1.80;99.90;;;;;;5025389;28;20205;-70
2021/12/21 13:32:19;;;;;;;10.40;7.43;;;1.80;99.90;;;;;;5025661;28;20214;-70
2021/12/21 13:34:52;;;;;;;11.23;7.97;;;1.90;99.90;;;;;;5025479;28;20224;-70